createdAt,value
2018-08-06T00:02:10.967Z,21.28
2018-08-06T00:04:45.367Z,21.22
2018-08-06T00:07:19.928Z,21.20
2018-08-06T00:09:54.688Z,21.34
2018-08-06T00:12:30.164Z,21.25
2018-08-06T00:15:06.784Z,21.19
2018-08-06T00:17:41.475Z,21.13
2018-08-06T00:20:16.308Z,21.05
2018-08-06T00:22:50.671Z,21.08
2018-08-06T00:25:26.157Z,21.17
2018-08-06T00:28:00.670Z,21.12
2018-08-06T00:30:34.996Z,21.05
2018-08-06T00:33:09.496Z,21.02
2018-08-06T00:35:43.888Z,20.99
2018-08-06T00:38:19.600Z,20.98
2018-08-06T00:40:54.523Z,20.96
2018-08-06T00:43:28.943Z,20.98
2018-08-06T00:46:03.484Z,20.96
2018-08-06T00:48:38.285Z,20.93
2018-08-06T00:51:12.655Z,20.85
2018-08-06T00:53:47.183Z,20.78
2018-08-06T00:56:21.633Z,20.83
2018-08-06T00:58:56.176Z,20.81
2018-08-06T01:01:30.860Z,20.77
2018-08-06T01:04:05.308Z,20.73
2018-08-06T01:06:40.424Z,20.74
2018-08-06T01:09:15.628Z,20.71
2018-08-06T01:11:50.569Z,20.69
2018-08-06T01:14:25.011Z,20.70
2018-08-06T01:16:59.456Z,20.80
2018-08-06T01:19:34.228Z,20.82
2018-08-06T01:22:08.733Z,20.73
2018-08-06T01:24:43.569Z,20.62
2018-08-06T01:27:18.624Z,20.49
2018-08-06T01:29:53.321Z,20.44
2018-08-06T01:32:27.794Z,20.36
2018-08-06T01:35:02.240Z,20.30
2018-08-06T01:37:36.701Z,20.27
2018-08-06T01:40:13.276Z,20.29
2018-08-06T01:42:47.968Z,20.29
2018-08-06T01:45:22.424Z,20.28
2018-08-06T01:47:57.287Z,20.25
2018-08-06T01:50:32.438Z,20.16
2018-08-06T01:53:06.908Z,20.11
2018-08-06T01:55:41.875Z,20.08
2018-08-06T01:58:16.164Z,20.12
2018-08-06T02:00:50.722Z,20.10
2018-08-06T02:03:25.813Z,20.00
2018-08-06T02:06:00.868Z,19.91
2018-08-06T02:08:36.180Z,19.94
2018-08-06T02:11:10.537Z,19.98
2018-08-06T02:13:44.970Z,20.04
2018-08-06T02:16:20.263Z,20.02
2018-08-06T02:18:55.212Z,19.98
2018-08-06T02:21:30.643Z,19.98
2018-08-06T02:24:05.377Z,19.97
2018-08-06T02:26:39.708Z,19.93
2018-08-06T02:29:14.160Z,19.86
2018-08-06T02:31:48.740Z,19.79
2018-08-06T02:34:23.528Z,19.74
2018-08-06T02:36:57.979Z,19.70
2018-08-06T02:39:32.748Z,19.73
2018-08-06T02:42:07.420Z,19.70
2018-08-06T02:44:42.348Z,19.68
2018-08-06T02:47:16.696Z,19.63
2018-08-06T02:49:52.033Z,19.61
2018-08-06T02:52:26.311Z,19.59
2018-08-06T02:55:01.062Z,19.57
2018-08-06T02:57:35.948Z,19.58
2018-08-06T03:00:15.275Z,19.52
2018-08-06T03:02:50.136Z,19.50
2018-08-06T03:05:25.027Z,19.45
2018-08-06T03:08:00.042Z,19.42
2018-08-06T03:10:34.408Z,19.40
2018-08-06T03:13:08.892Z,19.37
2018-08-06T03:15:43.704Z,19.35
2018-08-06T03:18:18.164Z,19.34
2018-08-06T03:20:52.616Z,19.37
2018-08-06T03:23:27.540Z,19.32
2018-08-06T03:26:02.007Z,19.27
2018-08-06T03:28:36.532Z,19.30
2018-08-06T03:31:11.013Z,19.31
2018-08-06T03:33:45.980Z,19.31
2018-08-06T03:36:20.360Z,19.34
2018-08-06T03:38:54.768Z,19.36
2018-08-06T03:41:29.215Z,19.38
2018-08-06T03:44:03.748Z,19.50
2018-08-06T03:46:38.968Z,19.48
2018-08-06T03:49:13.724Z,19.40
2018-08-06T03:51:48.188Z,19.36
2018-08-06T03:54:22.477Z,19.35
2018-08-06T03:56:56.927Z,19.34
2018-08-06T03:59:31.747Z,19.28
2018-08-06T04:02:06.045Z,19.23
2018-08-06T04:04:40.361Z,19.24
2018-08-06T04:07:15.233Z,19.32
2018-08-06T04:09:49.688Z,19.26
2018-08-06T04:12:24.340Z,19.23
2018-08-06T04:14:59.148Z,19.25
2018-08-06T04:17:35.072Z,19.25
2018-08-06T04:20:10.452Z,19.17
2018-08-06T04:22:44.818Z,19.11
2018-08-06T04:25:19.243Z,19.09
2018-08-06T04:27:54.111Z,19.10
2018-08-06T04:30:29.017Z,19.12
2018-08-06T04:33:03.737Z,19.14
2018-08-06T04:35:38.530Z,19.16
2018-08-06T04:38:13.444Z,19.16
2018-08-06T04:40:48.216Z,19.16
2018-08-06T04:43:22.984Z,19.17
2018-08-06T04:45:57.796Z,19.19
2018-08-06T04:48:32.601Z,19.22
2018-08-06T04:51:07.900Z,19.26
2018-08-06T04:53:42.544Z,19.32
2018-08-06T04:56:17.232Z,19.42
2018-08-06T04:58:52.389Z,19.49
2018-08-06T05:01:27.093Z,19.53
2018-08-06T05:04:01.493Z,19.70
2018-08-06T05:06:36.464Z,19.70
2018-08-06T05:09:12.906Z,19.72
2018-08-06T05:11:47.300Z,19.74
2018-08-06T05:14:21.876Z,19.77
2018-08-06T05:16:56.429Z,19.77
2018-08-06T05:19:32.898Z,19.79
2018-08-06T05:22:08.874Z,19.87
2018-08-06T05:24:43.738Z,19.94
2018-08-06T05:27:31.709Z,20.03
2018-08-06T05:30:08.370Z,20.09
2018-08-06T05:32:47.139Z,20.21
2018-08-06T05:35:25.449Z,20.30
2018-08-06T05:38:02.503Z,20.36
2018-08-06T05:40:39.409Z,20.43
2018-08-06T05:43:21.978Z,20.54
2018-08-06T05:46:03.328Z,20.73
2018-08-06T05:48:40.684Z,20.81
2018-08-06T05:51:15.547Z,20.83
2018-08-06T05:53:50.379Z,20.89
2018-08-06T05:56:26.147Z,20.89
2018-08-06T05:59:00.632Z,21.08
2018-08-06T06:01:35.140Z,21.19
2018-08-06T06:04:09.948Z,21.26
2018-08-06T06:06:44.651Z,21.31
2018-08-06T06:09:19.136Z,21.26
2018-08-06T06:11:53.636Z,21.27
2018-08-06T06:14:28.033Z,21.39
2018-08-06T06:17:06.832Z,21.44
2018-08-06T06:19:43.823Z,21.55
2018-08-06T06:22:18.649Z,21.73
2018-08-06T06:24:54.342Z,21.87
2018-08-06T06:27:29.380Z,22.06
2018-08-06T06:30:03.762Z,22.11
2018-08-06T06:32:38.436Z,22.30
2018-08-06T06:35:13.723Z,22.38
2018-08-06T06:37:48.842Z,22.53
2018-08-06T06:40:23.993Z,22.71
2018-08-06T06:42:58.472Z,22.79
2018-08-06T06:45:33.517Z,22.91
2018-08-06T06:48:08.965Z,22.93
2018-08-06T06:50:43.635Z,22.92
2018-08-06T06:53:18.655Z,22.92
2018-08-06T06:55:53.906Z,22.98
2018-08-06T06:58:28.762Z,22.94
2018-08-06T07:01:04.069Z,22.89
2018-08-06T07:03:38.824Z,22.89
2018-08-06T07:06:13.492Z,22.95
2018-08-06T07:08:49.720Z,22.94
2018-08-06T07:11:24.247Z,22.94
2018-08-06T07:13:58.702Z,22.96
2018-08-06T07:16:33.661Z,23.05
2018-08-06T07:19:08.057Z,23.20
2018-08-06T07:21:42.574Z,23.20
2018-08-06T07:24:17.657Z,23.29
2018-08-06T07:26:53.209Z,23.42
2018-08-06T07:29:28.044Z,23.42
2018-08-06T07:32:15.424Z,23.43
2018-08-06T07:34:50.341Z,23.62
2018-08-06T07:37:25.027Z,23.66
2018-08-06T07:39:59.976Z,23.70
2018-08-06T07:42:35.515Z,23.82
2018-08-06T07:45:13.469Z,23.98
2018-08-06T07:47:58.714Z,24.03
2018-08-06T07:50:34.326Z,24.07
2018-08-06T07:53:09.268Z,24.11
2018-08-06T07:55:44.349Z,24.27
2018-08-06T07:58:20.031Z,24.38
2018-08-06T08:01:07.642Z,24.53
2018-08-06T08:03:53.141Z,24.71
2018-08-06T08:06:27.739Z,24.89
2018-08-06T08:09:02.625Z,25.07
2018-08-06T08:11:37.067Z,25.17
2018-08-06T08:14:13.633Z,25.12
2018-08-06T08:16:48.132Z,25.21
2018-08-06T08:19:22.612Z,25.33
2018-08-06T08:21:57.403Z,25.43
2018-08-06T08:24:32.029Z,25.57
2018-08-06T08:27:06.993Z,25.72
2018-08-06T08:29:41.455Z,25.74
2018-08-06T08:32:16.028Z,25.85
2018-08-06T08:34:50.591Z,26.10
2018-08-06T08:37:24.932Z,26.29
2018-08-06T08:39:59.625Z,26.53
2018-08-06T08:42:34.045Z,26.70
2018-08-06T08:45:11.005Z,27.01
2018-08-06T08:47:45.936Z,27.29
2018-08-06T08:50:20.865Z,27.59
2018-08-06T08:52:55.349Z,27.98
2018-08-06T08:55:29.716Z,28.21
2018-08-06T08:58:04.148Z,28.55
2018-08-06T09:00:39.483Z,28.81
2018-08-06T09:03:13.865Z,28.90
2018-08-06T09:05:48.567Z,29.05
2018-08-06T09:08:23.382Z,29.41
2018-08-06T09:10:58.129Z,29.72
2018-08-06T09:13:33.111Z,30.08
2018-08-06T09:16:07.730Z,30.14
2018-08-06T09:18:42.709Z,30.25
2018-08-06T09:21:17.897Z,30.32
2018-08-06T09:23:52.796Z,30.74
2018-08-06T09:26:27.451Z,31.09
2018-08-06T09:29:01.913Z,31.22
2018-08-06T09:31:36.211Z,31.51
2018-08-06T09:34:10.670Z,31.53
2018-08-06T09:36:45.195Z,31.52
2018-08-06T09:39:19.681Z,31.66
2018-08-06T09:41:54.220Z,31.86
2018-08-06T09:44:28.977Z,31.97
2018-08-06T09:47:03.437Z,32.17
2018-08-06T09:49:38.116Z,32.11
2018-08-06T09:52:12.865Z,32.04
2018-08-06T09:54:47.569Z,32.24
2018-08-06T09:57:22.679Z,32.36
2018-08-06T09:59:57.457Z,32.38
2018-08-06T10:02:32.045Z,32.63
2018-08-06T10:05:06.517Z,32.87
2018-08-06T10:07:40.992Z,32.83
2018-08-06T10:10:15.361Z,32.88
2018-08-06T10:12:49.839Z,33.10
2018-08-06T10:15:24.647Z,33.14
2018-08-06T10:17:59.833Z,33.26
2018-08-06T10:20:34.540Z,33.29
2018-08-06T10:23:09.276Z,33.33
2018-08-06T10:25:44.421Z,33.42
2018-08-06T10:28:19.194Z,33.31
2018-08-06T10:30:53.582Z,33.35
2018-08-06T10:33:28.292Z,33.57
2018-08-06T10:36:03.085Z,33.65
2018-08-06T10:38:37.961Z,33.37
2018-08-06T10:41:12.692Z,33.47
2018-08-06T10:43:47.464Z,33.82
2018-08-06T10:46:21.896Z,34.00
2018-08-06T10:48:56.564Z,34.10
2018-08-06T10:51:31.951Z,34.37
2018-08-06T10:54:06.366Z,33.97
2018-08-06T10:56:41.124Z,33.68
2018-08-06T10:59:15.906Z,33.37
2018-08-06T11:01:50.229Z,33.77
2018-08-06T11:04:25.030Z,34.11
2018-08-06T11:06:59.508Z,34.53
2018-08-06T11:09:34.186Z,34.84
2018-08-06T11:12:09.013Z,35.02
2018-08-06T11:14:44.021Z,35.17
2018-08-06T11:17:18.460Z,35.44
2018-08-06T11:19:52.724Z,35.57
2018-08-06T11:22:27.618Z,35.66
2018-08-06T11:25:03.077Z,35.43
2018-08-06T11:27:37.788Z,35.44
2018-08-06T11:30:14.670Z,35.27
2018-08-06T11:32:49.516Z,34.96
2018-08-06T11:35:24.201Z,35.21
2018-08-06T11:37:58.733Z,35.57
2018-08-06T11:40:33.625Z,35.59
2018-08-06T11:43:09.004Z,35.71
2018-08-06T11:45:44.008Z,35.64
2018-08-06T11:48:19.124Z,35.42
2018-08-06T11:50:53.947Z,34.91
2018-08-06T11:53:28.467Z,35.15
2018-08-06T11:56:03.144Z,35.75
2018-08-06T11:58:38.205Z,36.18
2018-08-06T12:01:13.012Z,36.26
2018-08-06T12:03:48.099Z,35.82
2018-08-06T12:06:22.539Z,35.90
2018-08-06T12:08:57.459Z,35.76
2018-08-06T12:11:32.386Z,36.10
2018-08-06T12:14:06.882Z,35.98
2018-08-06T12:16:41.633Z,35.95
2018-08-06T12:19:16.078Z,36.06
2018-08-06T12:21:51.033Z,35.83
2018-08-06T12:24:25.805Z,35.76
2018-08-06T12:27:00.490Z,35.62
2018-08-06T12:29:35.542Z,35.32
2018-08-06T12:32:10.732Z,34.73
2018-08-06T12:34:45.857Z,34.12
2018-08-06T12:37:20.160Z,33.99
2018-08-06T12:39:54.984Z,33.70
2018-08-06T12:42:29.589Z,33.93
2018-08-06T12:45:05.016Z,34.69
2018-08-06T12:47:40.072Z,35.07
2018-08-06T12:50:15.817Z,35.43
2018-08-06T12:52:50.196Z,35.92
2018-08-06T12:55:25.180Z,35.72
2018-08-06T12:58:00.092Z,36.09
2018-08-06T13:00:34.968Z,36.29
2018-08-06T13:03:09.514Z,36.24
2018-08-06T13:05:44.656Z,35.76
2018-08-06T13:08:19.394Z,35.51
2018-08-06T13:10:54.257Z,35.42
2018-08-06T13:13:28.959Z,35.79
2018-08-06T13:16:03.819Z,35.96
2018-08-06T13:18:38.545Z,36.04
2018-08-06T13:21:12.968Z,35.77
2018-08-06T13:23:47.768Z,35.40
2018-08-06T13:26:22.820Z,35.10
2018-08-06T13:28:57.527Z,34.91
2018-08-06T13:31:32.168Z,35.48
2018-08-06T13:34:06.872Z,35.62
2018-08-06T13:36:41.449Z,35.82
2018-08-06T13:39:16.232Z,36.19
2018-08-06T13:41:51.199Z,36.06
2018-08-06T13:44:25.623Z,35.99
2018-08-06T13:47:05.664Z,36.27
2018-08-06T13:49:40.142Z,36.62
2018-08-06T13:52:14.925Z,36.77
2018-08-06T13:54:49.413Z,36.76
2018-08-06T13:57:25.653Z,36.67
2018-08-06T14:00:02.144Z,36.72
2018-08-06T14:02:39.140Z,36.84
2018-08-06T14:05:26.964Z,36.29
2018-08-06T14:08:03.156Z,36.37
2018-08-06T14:10:40.122Z,36.21
2018-08-06T14:13:15.212Z,36.20
2018-08-06T14:15:50.143Z,36.29
2018-08-06T14:18:27.316Z,36.29
2018-08-06T14:21:04.624Z,36.63
2018-08-06T14:23:39.442Z,36.66
2018-08-06T14:26:14.024Z,36.75
2018-08-06T14:28:48.446Z,37.07
2018-08-06T14:31:23.254Z,36.88
2018-08-06T14:33:57.899Z,36.65
2018-08-06T14:36:32.244Z,36.85
2018-08-06T14:39:09.468Z,36.74
2018-08-06T14:41:44.217Z,36.97
2018-08-06T14:44:18.989Z,37.28
2018-08-06T14:46:53.752Z,37.44
2018-08-06T14:49:28.986Z,37.54
2018-08-06T14:52:03.989Z,37.16
2018-08-06T14:54:38.861Z,36.93
2018-08-06T14:57:13.635Z,36.62
2018-08-06T14:59:48.539Z,36.13
2018-08-06T15:02:23.429Z,35.81
2018-08-06T15:04:58.484Z,36.02
2018-08-06T15:07:33.086Z,36.32
2018-08-06T15:10:09.800Z,36.45
2018-08-06T15:12:44.392Z,36.26
2018-08-06T15:15:19.271Z,36.28
2018-08-06T15:17:54.029Z,36.33
2018-08-06T15:20:28.548Z,36.58
2018-08-06T15:23:02.922Z,36.85
2018-08-06T15:25:37.400Z,36.75
2018-08-06T15:28:12.130Z,36.79
2018-08-06T15:30:46.573Z,36.67
2018-08-06T15:33:21.269Z,36.69
2018-08-06T15:35:55.904Z,36.32
2018-08-06T15:38:30.856Z,36.38
2018-08-06T15:41:05.706Z,36.52
2018-08-06T15:43:40.512Z,36.23
2018-08-06T15:46:15.088Z,35.82
2018-08-06T15:48:49.755Z,35.45
2018-08-06T15:51:24.602Z,35.30
2018-08-06T15:53:59.283Z,35.21
2018-08-06T15:56:34.465Z,35.20
2018-08-06T15:59:08.888Z,35.26
2018-08-06T16:01:43.422Z,35.39
2018-08-06T16:04:18.296Z,35.28
2018-08-06T16:06:52.832Z,35.29
2018-08-06T16:09:27.275Z,35.29
2018-08-06T16:12:02.084Z,34.88
2018-08-06T16:14:36.472Z,34.90
2018-08-06T16:17:10.767Z,34.84
2018-08-06T16:19:45.556Z,34.83
2018-08-06T16:22:19.990Z,34.94
2018-08-06T16:24:55.210Z,34.86
2018-08-06T16:27:29.978Z,34.94
2018-08-06T16:30:07.083Z,34.84
2018-08-06T16:32:42.401Z,34.74
2018-08-06T16:35:19.099Z,34.52
2018-08-06T16:37:55.413Z,34.19
2018-08-06T16:40:30.141Z,33.84
2018-08-06T16:43:04.651Z,33.73
2018-08-06T16:45:39.124Z,33.83
2018-08-06T16:48:13.867Z,33.85
2018-08-06T16:50:48.740Z,33.93
2018-08-06T16:53:23.314Z,33.95
2018-08-06T16:55:58.220Z,33.96
2018-08-06T16:58:32.684Z,33.90
2018-08-06T17:01:07.444Z,33.83
2018-08-06T17:03:41.834Z,33.77
2018-08-06T17:06:16.598Z,33.67
2018-08-06T17:08:51.042Z,33.66
2018-08-06T17:11:25.655Z,33.51
2018-08-06T17:14:00.613Z,33.44
2018-08-06T17:16:35.397Z,33.44
2018-08-06T17:19:10.240Z,33.38
2018-08-06T17:21:44.748Z,33.26
2018-08-06T17:24:19.453Z,33.03
2018-08-06T17:26:54.549Z,32.81
2018-08-06T17:29:29.466Z,32.57
2018-08-06T17:32:04.116Z,32.40
2018-08-06T17:34:39.064Z,32.26
2018-08-06T17:37:13.777Z,32.10
2018-08-06T17:39:48.382Z,32.01
2018-08-06T17:42:23.292Z,31.86
2018-08-06T17:44:58.058Z,31.71
2018-08-06T17:47:32.461Z,31.55
2018-08-06T17:50:09.833Z,31.47
2018-08-06T17:52:46.365Z,31.36
2018-08-06T17:55:22.424Z,31.25
2018-08-06T17:57:57.655Z,31.17
2018-08-06T18:00:32.062Z,31.05
2018-08-06T18:03:06.612Z,30.85
2018-08-06T18:05:41.508Z,30.67
2018-08-06T18:08:15.949Z,30.55
2018-08-06T18:10:50.270Z,30.42
2018-08-06T18:13:24.754Z,30.33
2018-08-06T18:15:59.657Z,30.17
2018-08-06T18:18:34.552Z,30.01
2018-08-06T18:21:09.001Z,29.90
2018-08-06T18:23:43.669Z,29.78
2018-08-06T18:26:18.136Z,29.60
2018-08-06T18:28:52.957Z,29.40
2018-08-06T18:31:27.825Z,29.21
2018-08-06T18:34:03.264Z,29.02
2018-08-06T18:36:38.221Z,28.85
2018-08-06T18:39:13.191Z,28.70
2018-08-06T18:41:47.852Z,28.54
2018-08-06T18:44:22.156Z,28.37
2018-08-06T18:46:56.581Z,28.17
2018-08-06T18:49:31.453Z,28.03
2018-08-06T18:52:06.246Z,27.88
2018-08-06T18:54:40.869Z,27.74
2018-08-06T18:57:15.559Z,27.64
2018-08-06T18:59:49.928Z,27.60
2018-08-06T19:02:24.360Z,27.64
2018-08-06T19:04:59.116Z,27.56
2018-08-06T19:07:33.993Z,27.44
2018-08-06T19:10:09.447Z,27.24
2018-08-06T19:12:49.366Z,27.08
2018-08-06T19:15:24.560Z,26.93
2018-08-06T19:18:04.252Z,26.89
2018-08-06T19:20:39.152Z,26.85
2018-08-06T19:23:14.257Z,26.83
2018-08-06T19:25:48.956Z,26.75
2018-08-06T19:28:23.284Z,26.66
2018-08-06T19:31:03.017Z,26.58
2018-08-06T19:33:38.029Z,26.51
2018-08-06T19:36:12.686Z,26.44
2018-08-06T19:38:47.388Z,26.35
2018-08-06T19:41:22.074Z,26.34
2018-08-06T19:43:56.826Z,26.39
2018-08-06T19:46:31.669Z,26.35
2018-08-06T19:49:12.195Z,26.27
2018-08-06T19:51:46.545Z,26.21
2018-08-06T19:54:21.028Z,26.23
2018-08-06T19:56:55.532Z,26.11
2018-08-06T19:59:30.749Z,26.02
2018-08-06T20:02:05.111Z,25.96
2018-08-06T20:04:40.232Z,25.85
2018-08-06T20:07:14.833Z,25.79
2018-08-06T20:09:49.557Z,25.74
2018-08-06T20:12:24.032Z,25.63
2018-08-06T20:14:58.696Z,25.57
2018-08-06T20:17:33.452Z,25.50
2018-08-06T20:20:08.021Z,25.45
2018-08-06T20:22:43.164Z,25.43
2018-08-06T20:25:19.291Z,25.41
2018-08-06T20:27:53.980Z,25.37
2018-08-06T20:30:28.444Z,25.30
2018-08-06T20:33:03.229Z,25.30
2018-08-06T20:35:37.648Z,25.25
2018-08-06T20:38:12.393Z,25.21
2018-08-06T20:40:47.127Z,25.22
2018-08-06T20:43:22.520Z,25.19
2018-08-06T20:45:57.576Z,25.13
2018-08-06T20:48:32.045Z,25.06
2018-08-06T20:51:07.793Z,24.99
2018-08-06T20:53:42.182Z,25.20
2018-08-06T20:56:17.161Z,25.27
2018-08-06T20:58:51.740Z,25.13
2018-08-06T21:01:26.367Z,25.32
2018-08-06T21:04:01.094Z,25.23
2018-08-06T21:06:36.152Z,25.13
2018-08-06T21:09:11.201Z,25.18
2018-08-06T21:11:45.772Z,25.00
2018-08-06T21:14:20.332Z,24.97
2018-08-06T21:16:55.004Z,25.00
2018-08-06T21:19:29.384Z,24.99
2018-08-06T21:22:03.861Z,25.05
2018-08-06T21:24:38.536Z,25.07
2018-08-06T21:27:13.429Z,25.15
2018-08-06T21:29:47.884Z,25.19
2018-08-06T21:32:22.169Z,25.33
2018-08-06T21:34:56.847Z,25.36
2018-08-06T21:37:31.396Z,25.41
2018-08-06T21:40:05.745Z,25.43
2018-08-06T21:42:40.552Z,25.48
2018-08-06T21:45:15.262Z,25.51
2018-08-06T21:47:50.173Z,25.55
2018-08-06T21:50:24.720Z,25.53
2018-08-06T21:53:00.259Z,25.55
2018-08-06T21:55:35.339Z,25.58
2018-08-06T21:58:10.022Z,25.52
2018-08-06T22:00:44.902Z,25.47
2018-08-06T22:03:19.412Z,25.42
2018-08-06T22:05:53.805Z,25.38
2018-08-06T22:08:28.702Z,25.41
2018-08-06T22:11:03.553Z,25.36
2018-08-06T22:13:37.857Z,25.24
2018-08-06T22:16:13.006Z,25.27
2018-08-06T22:18:47.776Z,25.23
2018-08-06T22:21:22.485Z,25.25
2018-08-06T22:23:57.288Z,25.22
2018-08-06T22:26:32.412Z,25.25
2018-08-06T22:29:07.280Z,25.22
2018-08-06T22:31:41.881Z,25.24
2018-08-06T22:34:16.784Z,25.22
2018-08-06T22:36:51.853Z,25.16
2018-08-06T22:39:26.904Z,25.20
2018-08-06T22:42:01.736Z,25.18
2018-08-06T22:44:36.115Z,25.26
2018-08-06T22:47:10.984Z,25.23
2018-08-06T22:49:46.448Z,25.14
2018-08-06T22:52:20.888Z,25.15
2018-08-06T22:54:55.396Z,25.13
2018-08-06T22:57:30.314Z,25.11
2018-08-06T23:00:06.692Z,25.08
2018-08-06T23:02:41.764Z,25.07
2018-08-06T23:05:16.980Z,24.98
2018-08-06T23:07:51.640Z,24.87
2018-08-06T23:10:26.444Z,24.88
2018-08-06T23:13:00.785Z,24.86
2018-08-06T23:15:35.360Z,24.76
2018-08-06T23:18:10.177Z,24.76
2018-08-06T23:20:44.950Z,24.67
2018-08-06T23:23:19.433Z,24.63
2018-08-06T23:25:54.222Z,24.54
2018-08-06T23:28:29.276Z,24.45
2018-08-06T23:31:03.704Z,24.42
2018-08-06T23:33:40.106Z,24.41
2018-08-06T23:36:16.323Z,24.41
2018-08-06T23:38:51.357Z,24.37
2018-08-06T23:41:26.703Z,24.31
2018-08-06T23:44:01.693Z,24.25
2018-08-06T23:46:36.016Z,24.23
2018-08-06T23:49:11.091Z,24.23
2018-08-06T23:51:45.480Z,24.24
2018-08-06T23:54:19.886Z,24.14
2018-08-06T23:56:56.080Z,24.06
2018-08-06T23:59:31.046Z,23.92
